MDT,Max TemperatureF,Mean TemperatureF,Min TemperatureF,Max Dew PointF,MeanDew PointF,Min DewpointF,Max Humidity, Mean Humidity, Min Humidity, Max Sea Level PressureIn, Mean Sea Level PressureIn, Min Sea Level PressureIn, Max VisibilityMiles, Mean VisibilityMiles, Min VisibilityMiles, Max Wind SpeedMPH, Mean Wind SpeedMPH, Max Gust SpeedMPH,PrecipitationIn, CloudCover, Events, WindDirDegrees
2012-3-1,43,30,16,19,10,2,68,44,20,29.85,29.78,29.67,10,10,10,32,13,37,0.00,3,,308
2012-3-2,41,26,11,16,10,4,76,49,22,30.14,30.01,29.83,10,10,10,30,15,39,0.00,1,,307
2012-3-3,46,32,17,22,13,8,73,48,23,30.13,30.02,29.89,10,10,10,35,21,46,0.00,2,,307
2012-3-4,61,43,24,26,23,17,74,49,23,30.19,30.05,29.89,10,10,10,39,20,48,0.00,3,,312
2012-3-5,73,50,26,26,16,5,75,41,7,30.12,29.91,29.69,10,10,10,35,15,40,0.00,0,,254
2012-3-6,74,51,27,30,14,3,57,32,6,29.70,29.52,29.37,10,10,10,33,14,41,0.00,0,,221
2012-3-7,39,30,20,30,21,13,78,63,47,30.31,29.92,29.56,10,10,10,32,14,39,0.00,7,,344
2012-3-8,50,32,14,17,10,5,80,50,19,30.58,30.50,30.37,10,10,10,18,9,25,0.00,0,,296
2012-3-9,65,40,15,17,9,3,73,41,9,30.55,30.37,30.13,10,10,10,21,12,26,0.00,0,,229
2012-3-10,73,48,22,40,25,9,82,47,12,30.14,29.95,29.80,10,10,10,29,15,35,0.00,0,,215
2012-3-11,56,43,30,39,34,22,92,70,47,29.85,29.74,29.57,10,7,1,20,11,26,0.00,4,,186
2012-3-12,71,53,34,22,18,15,44,28,12,29.93,29.79,29.57,10,10,10,33,15,39,0.00,0,,261
2012-3-13,74,50,25,22,16,12,63,36,9,29.96,29.81,29.71,10,10,10,20,9,25,0.00,0,,243
2012-3-14,77,54,31,15,13,10,53,31,8,29.93,29.85,29.75,10,10,10,28,12,36,0.00,0,,261
2012-3-15,74,55,35,28,25,15,52,35,17,30.06,29.98,29.92,10,10,10,25,10,33,0.00,0,,294
2012-3-16,79,57,35,27,22,18,56,33,10,29.92,29.77,29.65,10,10,9,16,8,21,0.00,0,,214
2012-3-17,81,57,33,25,19,11,56,32,8,29.74,29.59,29.47,10,10,10,25,11,39,0.00,0,,217
2012-3-18,78,54,29,24,17,12,49,29,9,29.53,29.37,29.24,10,7,1,47,21,58,0.00,3,,197
2012-3-19,58,45,32,23,11,4,56,34,11,29.65,29.49,29.31,10,10,10,22,9,28,0.00,2,,284
2012-3-20,54,38,21,26,20,12,72,47,22,30.05,29.92,29.67,10,10,10,23,11,28,0.00,3,,355
2012-3-21,65,42,19,18,14,9,67,40,12,30.04,29.98,29.95,10,10,10,22,11,26,0.00,0,,3
2012-3-22,55,45,35,47,39,19,89,69,48,29.98,29.94,29.90,10,8,2,17,10,20,0.11,7,Rain,278
2012-3-23,71,53,34,50,41,30,100,70,39,30.01,29.95,29.87,10,8,0,15,7,20,0.00,3,Fog,229
2012-3-24,69,53,36,40,37,31,85,59,33,30.11,30.02,29.91,10,10,10,26,15,32,0.00,0,,11
2012-3-25,65,48,30,50,41,29,96,76,56,30.15,30.03,29.89,10,6,0,15,7,18,0.00,2,Fog,153
2012-3-26,83,60,36,50,30,9,93,50,6,29.92,29.66,29.35,10,5,0,48,18,58,0.00,1,Fog,215
2012-3-27,71,54,37,23,18,13,48,31,14,30.01,29.88,29.70,10,10,10,38,17,46,0.00,0,,306
2012-3-28,75,54,32,49,36,23,83,56,29,30.00,29.87,29.74,10,10,10,22,12,28,0.00,0,,176
2012-3-29,70,53,35,48,32,15,100,56,12,29.86,29.80,29.71,10,8,1,31,13,40,0.00,0,,279
2012-3-30,80,58,36,32,26,21,53,33,13,29.87,29.78,29.69,10,10,10,31,12,43,0.00,1,,274
2012-3-31,82,63,43,34,31,26,50,33,16,29.84,29.69,29.49,10,10,10,21,11,25,0.00,0,,238